Terminal Aerodrome Forecast
Issued by NWS

Home | Current Version | Previous Version | Text Only | Print | Product List | Glossary On
Versions: 1 2 3 4 5 6 7 8 9 10 11 12 13 14
024
FTPA31 PHFO 022331
TAFHMK
TAF
PHMK 022331Z 0300/0324 04017G26KT P6SM FEW008 SCT025 SCT045
     FM030500 04010G18KT P6SM VCSH FEW025 SCT045
     FM032000 05016G25KT P6SM FEW025 SCT045=

USA.gov is the U.S. government's official web portal to all federal, state and local government web resources and services.